sensor_id;sensor_type;location;lat;lon;timestamp;P1;durP1;ratioP1;P2;durP2;ratioP2
57337;SDS011;43173;50.980;18.204;2023-04-24T00:01:01;8.10;;;5.50;;
57337;SDS011;43173;50.980;18.204;2023-04-24T00:03:27;9.80;;;5.40;;
57337;SDS011;43173;50.980;18.204;2023-04-24T00:05:53;8.30;;;5.90;;
57337;SDS011;43173;50.980;18.204;2023-04-24T00:08:19;8.30;;;6.00;;
57337;SDS011;43173;50.980;18.204;2023-04-24T00:10:45;8.70;;;5.90;;
57337;SDS011;43173;50.980;18.204;2023-04-24T00:13:11;8.70;;;5.70;;
57337;SDS011;43173;50.980;18.204;2023-04-24T00:15:37;8.60;;;5.90;;
57337;SDS011;43173;50.980;18.204;2023-04-24T00:18:03;8.40;;;5.60;;
57337;SDS011;43173;50.980;18.204;2023-04-24T00:20:28;7.80;;;5.40;;
57337;SDS011;43173;50.980;18.204;2023-04-24T00:22:58;8.50;;;6.20;;
57337;SDS011;43173;50.980;18.204;2023-04-24T00:25:24;7.60;;;5.60;;
57337;SDS011;43173;50.980;18.204;2023-04-24T00:27:49;7.50;;;5.80;;
57337;SDS011;43173;50.980;18.204;2023-04-24T00:30:15;10.90;;;6.30;;
57337;SDS011;43173;50.980;18.204;2023-04-24T00:32:41;13.00;;;5.60;;
57337;SDS011;43173;50.980;18.204;2023-04-24T00:35:07;8.20;;;5.90;;
57337;SDS011;43173;50.980;18.204;2023-04-24T00:37:32;8.30;;;5.60;;
57337;SDS011;43173;50.980;18.204;2023-04-24T00:39:58;7.60;;;5.30;;
57337;SDS011;43173;50.980;18.204;2023-04-24T00:42:24;8.60;;;6.00;;
57337;SDS011;43173;50.980;18.204;2023-04-24T00:44:49;8.90;;;5.20;;
57337;SDS011;43173;50.980;18.204;2023-04-24T00:47:15;8.60;;;5.70;;
57337;SDS011;43173;50.980;18.204;2023-04-24T00:49:41;7.10;;;4.90;;
57337;SDS011;43173;50.980;18.204;2023-04-24T00:52:07;7.50;;;5.40;;
57337;SDS011;43173;50.980;18.204;2023-04-24T00:54:34;6.40;;;5.00;;
57337;SDS011;43173;50.980;18.204;2023-04-24T00:57:01;8.20;;;5.40;;
57337;SDS011;43173;50.980;18.204;2023-04-24T00:59:30;8.70;;;5.50;;
57337;SDS011;43173;50.980;18.204;2023-04-24T01:01:56;7.60;;;5.40;;
57337;SDS011;43173;50.980;18.204;2023-04-24T01:04:23;5.80;;;5.20;;
57337;SDS011;43173;50.980;18.204;2023-04-24T01:06:49;7.60;;;5.20;;
57337;SDS011;43173;50.980;18.204;2023-04-24T01:09:15;6.80;;;5.00;;
57337;SDS011;43173;50.980;18.204;2023-04-24T01:11:41;8.30;;;4.90;;
57337;SDS011;43173;50.980;18.204;2023-04-24T01:14:08;6.70;;;4.90;;
57337;SDS011;43173;50.980;18.204;2023-04-24T01:16:34;8.20;;;5.40;;
57337;SDS011;43173;50.980;18.204;2023-04-24T01:19:01;9.70;;;5.20;;
57337;SDS011;43173;50.980;18.204;2023-04-24T01:21:26;9.90;;;5.60;;
57337;SDS011;43173;50.980;18.204;2023-04-24T01:23:53;7.30;;;5.30;;
57337;SDS011;43173;50.980;18.204;2023-04-24T01:26:21;11.30;;;5.70;;
57337;SDS011;43173;50.980;18.204;2023-04-24T01:28:46;9.90;;;5.20;;
57337;SDS011;43173;50.980;18.204;2023-04-24T01:31:13;8.50;;;5.90;;
57337;SDS011;43173;50.980;18.204;2023-04-24T01:33:41;7.00;;;5.70;;
57337;SDS011;43173;50.980;18.204;2023-04-24T01:36:07;10.10;;;5.60;;
57337;SDS011;43173;50.980;18.204;2023-04-24T01:38:34;7.10;;;5.70;;
57337;SDS011;43173;50.980;18.204;2023-04-24T01:41:00;10.50;;;5.80;;
57337;SDS011;43173;50.980;18.204;2023-04-24T01:43:26;7.50;;;5.70;;
57337;SDS011;43173;50.980;18.204;2023-04-24T01:45:52;10.70;;;6.20;;
57337;SDS011;43173;50.980;18.204;2023-04-24T01:48:17;10.20;;;6.20;;
57337;SDS011;43173;50.980;18.204;2023-04-24T01:50:43;10.70;;;5.70;;
57337;SDS011;43173;50.980;18.204;2023-04-24T01:53:08;8.90;;;5.80;;
57337;SDS011;43173;50.980;18.204;2023-04-24T01:55:35;7.10;;;5.70;;
57337;SDS011;43173;50.980;18.204;2023-04-24T01:58:00;7.40;;;5.60;;
57337;SDS011;43173;50.980;18.204;2023-04-24T02:00:27;9.50;;;6.30;;
57337;SDS011;43173;50.980;18.204;2023-04-24T02:02:53;11.70;;;6.30;;
57337;SDS011;43173;50.980;18.204;2023-04-24T02:05:18;10.40;;;6.00;;
57337;SDS011;43173;50.980;18.204;2023-04-24T02:07:44;8.20;;;6.00;;
57337;SDS011;43173;50.980;18.204;2023-04-24T02:10:10;9.40;;;6.20;;
57337;SDS011;43173;50.980;18.204;2023-04-24T02:12:35;9.50;;;6.10;;
57337;SDS011;43173;50.980;18.204;2023-04-24T02:15:01;9.30;;;6.00;;
57337;SDS011;43173;50.980;18.204;2023-04-24T02:17:28;8.60;;;6.00;;
57337;SDS011;43173;50.980;18.204;2023-04-24T02:19:53;10.40;;;6.30;;
57337;SDS011;43173;50.980;18.204;2023-04-24T02:22:19;10.30;;;6.20;;
57337;SDS011;43173;50.980;18.204;2023-04-24T02:24:44;8.90;;;6.00;;
57337;SDS011;43173;50.980;18.204;2023-04-24T02:27:10;8.90;;;6.30;;
57337;SDS011;43173;50.980;18.204;2023-04-24T02:29:37;8.20;;;6.60;;
57337;SDS011;43173;50.980;18.204;2023-04-24T02:32:02;9.50;;;6.70;;
57337;SDS011;43173;50.980;18.204;2023-04-24T02:34:28;11.30;;;7.00;;
57337;SDS011;43173;50.980;18.204;2023-04-24T02:36:53;9.50;;;7.10;;
57337;SDS011;43173;50.980;18.204;2023-04-24T02:39:19;10.20;;;6.90;;
57337;SDS011;43173;50.980;18.204;2023-04-24T02:41:45;9.50;;;6.90;;
57337;SDS011;43173;50.980;18.204;2023-04-24T02:44:11;10.40;;;7.70;;
57337;SDS011;43173;50.980;18.204;2023-04-24T02:46:36;10.60;;;7.80;;
57337;SDS011;43173;50.980;18.204;2023-04-24T02:49:02;9.50;;;7.40;;
57337;SDS011;43173;50.980;18.204;2023-04-24T02:51:28;10.10;;;7.20;;
57337;SDS011;43173;50.980;18.204;2023-04-24T02:53:54;15.50;;;8.50;;
57337;SDS011;43173;50.980;18.204;2023-04-24T02:56:19;11.70;;;8.00;;
57337;SDS011;43173;50.980;18.204;2023-04-24T02:58:45;12.70;;;7.30;;
57337;SDS011;43173;50.980;18.204;2023-04-24T03:01:10;13.70;;;7.70;;
57337;SDS011;43173;50.980;18.204;2023-04-24T03:03:37;13.40;;;7.90;;
57337;SDS011;43173;50.980;18.204;2023-04-24T03:06:03;9.80;;;8.10;;
57337;SDS011;43173;50.980;18.204;2023-04-24T03:08:31;11.60;;;7.90;;
57337;SDS011;43173;50.980;18.204;2023-04-24T03:10:57;11.70;;;7.50;;
57337;SDS011;43173;50.980;18.204;2023-04-24T03:13:23;10.60;;;7.70;;
57337;SDS011;43173;50.980;18.204;2023-04-24T03:15:48;13.50;;;7.30;;
57337;SDS011;43173;50.980;18.204;2023-04-24T03:18:14;10.40;;;7.90;;
57337;SDS011;43173;50.980;18.204;2023-04-24T03:20:40;12.50;;;7.90;;
57337;SDS011;43173;50.980;18.204;2023-04-24T03:23:05;12.80;;;7.30;;
57337;SDS011;43173;50.980;18.204;2023-04-24T03:25:31;10.90;;;8.10;;
57337;SDS011;43173;50.980;18.204;2023-04-24T03:27:56;11.70;;;8.10;;
57337;SDS011;43173;50.980;18.204;2023-04-24T03:30:22;9.60;;;7.80;;
57337;SDS011;43173;50.980;18.204;2023-04-24T03:32:48;12.50;;;8.00;;
57337;SDS011;43173;50.980;18.204;2023-04-24T03:35:13;11.90;;;8.50;;
57337;SDS011;43173;50.980;18.204;2023-04-24T03:37:39;11.90;;;8.40;;
57337;SDS011;43173;50.980;18.204;2023-04-24T03:40:05;13.20;;;8.50;;
57337;SDS011;43173;50.980;18.204;2023-04-24T03:42:32;17.60;;;10.60;;
57337;SDS011;43173;50.980;18.204;2023-04-24T03:44:58;17.40;;;13.40;;
57337;SDS011;43173;50.980;18.204;2023-04-24T03:47:23;18.20;;;13.10;;
57337;SDS011;43173;50.980;18.204;2023-04-24T03:49:49;15.00;;;11.20;;
57337;SDS011;43173;50.980;18.204;2023-04-24T03:52:15;17.50;;;11.40;;
57337;SDS011;43173;50.980;18.204;2023-04-24T03:54:40;17.80;;;11.70;;
57337;SDS011;43173;50.980;18.204;2023-04-24T03:57:06;23.40;;;11.40;;
57337;SDS011;43173;50.980;18.204;2023-04-24T03:59:31;19.60;;;12.10;;
57337;SDS011;43173;50.980;18.204;2023-04-24T04:01:57;18.70;;;11.70;;
57337;SDS011;43173;50.980;18.204;2023-04-24T04:04:22;19.10;;;11.70;;
57337;SDS011;43173;50.980;18.204;2023-04-24T04:06:48;19.90;;;12.60;;
57337;SDS011;43173;50.980;18.204;2023-04-24T04:09:14;22.40;;;12.40;;
57337;SDS011;43173;50.980;18.204;2023-04-24T04:11:40;17.70;;;11.60;;
57337;SDS011;43173;50.980;18.204;2023-04-24T04:14:05;17.30;;;10.30;;
57337;SDS011;43173;50.980;18.204;2023-04-24T04:16:31;15.70;;;10.30;;
57337;SDS011;43173;50.980;18.204;2023-04-24T04:18:56;17.50;;;10.20;;
57337;SDS011;43173;50.980;18.204;2023-04-24T04:21:22;12.30;;;10.10;;
57337;SDS011;43173;50.980;18.204;2023-04-24T04:23:48;16.10;;;10.20;;
57337;SDS011;43173;50.980;18.204;2023-04-24T04:26:14;13.40;;;9.70;;
57337;SDS011;43173;50.980;18.204;2023-04-24T04:28:39;14.90;;;9.60;;
57337;SDS011;43173;50.980;18.204;2023-04-24T04:31:06;13.30;;;8.60;;
57337;SDS011;43173;50.980;18.204;2023-04-24T04:33:33;12.90;;;8.00;;
57337;SDS011;43173;50.980;18.204;2023-04-24T04:35:59;16.20;;;8.80;;
57337;SDS011;43173;50.980;18.204;2023-04-24T04:38:25;13.10;;;8.80;;
57337;SDS011;43173;50.980;18.204;2023-04-24T04:40:51;15.60;;;10.20;;
57337;SDS011;43173;50.980;18.204;2023-04-24T04:43:17;13.10;;;9.20;;
57337;SDS011;43173;50.980;18.204;2023-04-24T04:45:43;15.00;;;9.50;;
57337;SDS011;43173;50.980;18.204;2023-04-24T04:48:08;18.40;;;10.00;;
57337;SDS011;43173;50.980;18.204;2023-04-24T04:50:37;14.80;;;8.90;;
57337;SDS011;43173;50.980;18.204;2023-04-24T04:53:03;13.10;;;9.00;;
57337;SDS011;43173;50.980;18.204;2023-04-24T04:55:29;11.60;;;8.10;;
57337;SDS011;43173;50.980;18.204;2023-04-24T04:57:55;12.70;;;8.20;;
57337;SDS011;43173;50.980;18.204;2023-04-24T05:00:21;14.20;;;8.90;;
57337;SDS011;43173;50.980;18.204;2023-04-24T05:02:49;14.00;;;8.90;;
57337;SDS011;43173;50.980;18.204;2023-04-24T05:05:15;13.30;;;8.10;;
57337;SDS011;43173;50.980;18.204;2023-04-24T05:07:42;14.00;;;8.60;;
57337;SDS011;43173;50.980;18.204;2023-04-24T05:10:08;13.10;;;7.50;;
57337;SDS011;43173;50.980;18.204;2023-04-24T05:12:34;12.70;;;7.90;;
57337;SDS011;43173;50.980;18.204;2023-04-24T05:14:59;26.90;;;16.30;;
57337;SDS011;43173;50.980;18.204;2023-04-24T05:17:25;34.40;;;22.20;;
57337;SDS011;43173;50.980;18.204;2023-04-24T05:19:51;31.50;;;22.10;;
57337;SDS011;43173;50.980;18.204;2023-04-24T05:22:16;24.20;;;15.40;;
57337;SDS011;43173;50.980;18.204;2023-04-24T05:24:43;19.20;;;12.30;;
57337;SDS011;43173;50.980;18.204;2023-04-24T05:27:10;13.80;;;9.60;;
57337;SDS011;43173;50.980;18.204;2023-04-24T05:29:36;11.90;;;8.70;;
57337;SDS011;43173;50.980;18.204;2023-04-24T05:32:01;11.70;;;7.80;;
57337;SDS011;43173;50.980;18.204;2023-04-24T05:34:27;12.20;;;7.80;;
57337;SDS011;43173;50.980;18.204;2023-04-24T05:36:52;12.70;;;8.20;;
57337;SDS011;43173;50.980;18.204;2023-04-24T05:39:18;9.50;;;8.00;;
57337;SDS011;43173;50.980;18.204;2023-04-24T05:41:44;12.40;;;8.50;;
57337;SDS011;43173;50.980;18.204;2023-04-24T05:44:10;12.40;;;7.70;;
57337;SDS011;43173;50.980;18.204;2023-04-24T05:46:36;12.20;;;8.10;;
57337;SDS011;43173;50.980;18.204;2023-04-24T05:49:01;13.20;;;7.80;;
57337;SDS011;43173;50.980;18.204;2023-04-24T05:51:28;13.00;;;8.60;;
57337;SDS011;43173;50.980;18.204;2023-04-24T05:53:53;13.20;;;7.80;;
57337;SDS011;43173;50.980;18.204;2023-04-24T05:56:19;14.70;;;7.80;;
57337;SDS011;43173;50.980;18.204;2023-04-24T05:58:46;11.50;;;8.30;;
57337;SDS011;43173;50.980;18.204;2023-04-24T06:01:12;13.10;;;7.90;;
57337;SDS011;43173;50.980;18.204;2023-04-24T06:03:40;12.70;;;8.10;;
57337;SDS011;43173;50.980;18.204;2023-04-24T06:06:06;13.80;;;8.70;;
57337;SDS011;43173;50.980;18.204;2023-04-24T06:08:32;14.20;;;9.40;;
57337;SDS011;43173;50.980;18.204;2023-04-24T06:10:58;9.30;;;7.10;;
57337;SDS011;43173;50.980;18.204;2023-04-24T06:13:24;12.40;;;7.90;;
57337;SDS011;43173;50.980;18.204;2023-04-24T06:15:49;16.20;;;8.10;;
57337;SDS011;43173;50.980;18.204;2023-04-24T06:18:15;20.50;;;7.90;;
57337;SDS011;43173;50.980;18.204;2023-04-24T06:20:41;14.10;;;7.60;;
57337;SDS011;43173;50.980;18.204;2023-04-24T06:23:07;11.70;;;6.80;;
57337;SDS011;43173;50.980;18.204;2023-04-24T06:25:33;11.70;;;7.00;;
57337;SDS011;43173;50.980;18.204;2023-04-24T06:27:59;13.60;;;7.20;;
57337;SDS011;43173;50.980;18.204;2023-04-24T06:30:25;13.50;;;7.50;;
57337;SDS011;43173;50.980;18.204;2023-04-24T06:32:50;10.90;;;7.00;;
57337;SDS011;43173;50.980;18.204;2023-04-24T06:35:16;9.30;;;6.90;;
57337;SDS011;43173;50.980;18.204;2023-04-24T06:37:42;15.40;;;7.40;;
57337;SDS011;43173;50.980;18.204;2023-04-24T06:40:08;12.80;;;6.50;;
57337;SDS011;43173;50.980;18.204;2023-04-24T06:42:35;13.20;;;7.40;;
57337;SDS011;43173;50.980;18.204;2023-04-24T06:45:01;11.40;;;6.40;;
57337;SDS011;43173;50.980;18.204;2023-04-24T06:47:27;16.20;;;7.50;;
57337;SDS011;43173;50.980;18.204;2023-04-24T06:49:53;12.10;;;7.20;;
57337;SDS011;43173;50.980;18.204;2023-04-24T06:52:19;13.40;;;7.40;;
57337;SDS011;43173;50.980;18.204;2023-04-24T06:54:45;10.80;;;6.90;;
57337;SDS011;43173;50.980;18.204;2023-04-24T06:57:11;9.80;;;6.60;;
57337;SDS011;43173;50.980;18.204;2023-04-24T06:59:37;12.20;;;6.80;;
57337;SDS011;43173;50.980;18.204;2023-04-24T07:02:03;10.50;;;6.70;;
57337;SDS011;43173;50.980;18.204;2023-04-24T07:04:29;12.00;;;6.90;;
57337;SDS011;43173;50.980;18.204;2023-04-24T07:06:55;10.50;;;6.60;;
57337;SDS011;43173;50.980;18.204;2023-04-24T07:09:23;9.40;;;6.90;;
57337;SDS011;43173;50.980;18.204;2023-04-24T07:11:50;11.90;;;6.90;;
57337;SDS011;43173;50.980;18.204;2023-04-24T07:14:17;10.10;;;6.30;;
57337;SDS011;43173;50.980;18.204;2023-04-24T07:16:43;9.40;;;6.30;;
57337;SDS011;43173;50.980;18.204;2023-04-24T07:19:09;10.60;;;6.30;;
57337;SDS011;43173;50.980;18.204;2023-04-24T07:21:34;11.10;;;6.50;;
57337;SDS011;43173;50.980;18.204;2023-04-24T07:24:00;11.30;;;6.60;;
57337;SDS011;43173;50.980;18.204;2023-04-24T07:26:27;8.90;;;6.60;;
57337;SDS011;43173;50.980;18.204;2023-04-24T07:28:54;10.70;;;6.50;;
57337;SDS011;43173;50.980;18.204;2023-04-24T07:31:20;11.70;;;6.70;;
57337;SDS011;43173;50.980;18.204;2023-04-24T07:33:46;12.60;;;7.40;;
57337;SDS011;43173;50.980;18.204;2023-04-24T07:36:12;12.20;;;6.60;;
57337;SDS011;43173;50.980;18.204;2023-04-24T07:38:41;13.10;;;7.20;;
57337;SDS011;43173;50.980;18.204;2023-04-24T07:41:08;11.30;;;7.00;;
57337;SDS011;43173;50.980;18.204;2023-04-24T07:43:33;14.80;;;9.10;;
57337;SDS011;43173;50.980;18.204;2023-04-24T07:45:59;20.70;;;11.10;;
57337;SDS011;43173;50.980;18.204;2023-04-24T07:48:25;18.70;;;8.90;;
57337;SDS011;43173;50.980;18.204;2023-04-24T07:50:52;10.10;;;4.70;;
57337;SDS011;43173;50.980;18.204;2023-04-24T07:53:18;11.70;;;5.20;;
57337;SDS011;43173;50.980;18.204;2023-04-24T07:55:44;8.00;;;4.60;;
57337;SDS011;43173;50.980;18.204;2023-04-24T07:58:09;18.80;;;6.30;;
57337;SDS011;43173;50.980;18.204;2023-04-24T08:00:35;10.20;;;5.30;;
57337;SDS011;43173;50.980;18.204;2023-04-24T08:03:01;10.30;;;5.80;;
57337;SDS011;43173;50.980;18.204;2023-04-24T08:05:27;5.30;;;4.30;;
57337;SDS011;43173;50.980;18.204;2023-04-24T08:07:54;5.20;;;4.20;;
57337;SDS011;43173;50.980;18.204;2023-04-24T08:10:20;5.30;;;4.10;;
57337;SDS011;43173;50.980;18.204;2023-04-24T08:12:49;8.10;;;4.70;;
57337;SDS011;43173;50.980;18.204;2023-04-24T08:15:15;9.00;;;4.60;;
57337;SDS011;43173;50.980;18.204;2023-04-24T08:17:41;6.00;;;5.00;;
57337;SDS011;43173;50.980;18.204;2023-04-24T08:20:07;6.00;;;4.30;;
57337;SDS011;43173;50.980;18.204;2023-04-24T08:22:38;8.60;;;5.10;;
57337;SDS011;43173;50.980;18.204;2023-04-24T08:27:36;8.50;;;4.50;;
57337;SDS011;43173;50.980;18.204;2023-04-24T08:30:02;7.10;;;4.40;;
57337;SDS011;43173;50.980;18.204;2023-04-24T08:32:29;5.50;;;3.90;;
57337;SDS011;43173;50.980;18.204;2023-04-24T08:34:55;9.00;;;4.80;;
57337;SDS011;43173;50.980;18.204;2023-04-24T08:37:22;6.50;;;4.30;;
57337;SDS011;43173;50.980;18.204;2023-04-24T08:39:51;7.80;;;4.40;;
57337;SDS011;43173;50.980;18.204;2023-04-24T08:42:17;9.90;;;4.60;;
57337;SDS011;43173;50.980;18.204;2023-04-24T08:44:44;5.70;;;4.20;;
57337;SDS011;43173;50.980;18.204;2023-04-24T08:47:10;7.10;;;3.90;;
57337;SDS011;43173;50.980;18.204;2023-04-24T08:49:36;6.20;;;4.00;;
57337;SDS011;43173;50.980;18.204;2023-04-24T08:52:04;6.70;;;3.70;;
57337;SDS011;43173;50.980;18.204;2023-04-24T08:54:31;9.70;;;4.10;;
57337;SDS011;43173;50.980;18.204;2023-04-24T08:56:58;7.50;;;4.30;;
57337;SDS011;43173;50.980;18.204;2023-04-24T08:59:27;5.90;;;4.30;;
57337;SDS011;43173;50.980;18.204;2023-04-24T09:01:54;7.40;;;4.10;;
57337;SDS011;43173;50.980;18.204;2023-04-24T09:04:20;6.20;;;4.40;;
57337;SDS011;43173;50.980;18.204;2023-04-24T09:06:51;8.30;;;4.00;;
57337;SDS011;43173;50.980;18.204;2023-04-24T09:09:18;5.10;;;4.10;;
57337;SDS011;43173;50.980;18.204;2023-04-24T09:11:44;8.90;;;4.60;;
57337;SDS011;43173;50.980;18.204;2023-04-24T09:14:10;5.90;;;4.20;;
57337;SDS011;43173;50.980;18.204;2023-04-24T09:16:36;8.10;;;4.30;;
57337;SDS011;43173;50.980;18.204;2023-04-24T09:19:01;6.40;;;4.10;;
57337;SDS011;43173;50.980;18.204;2023-04-24T09:21:34;7.30;;;4.30;;
57337;SDS011;43173;50.980;18.204;2023-04-24T09:24:01;6.00;;;4.10;;
57337;SDS011;43173;50.980;18.204;2023-04-24T09:26:30;6.00;;;4.10;;
57337;SDS011;43173;50.980;18.204;2023-04-24T09:28:59;5.30;;;4.10;;
57337;SDS011;43173;50.980;18.204;2023-04-24T09:31:26;15.80;;;6.30;;
57337;SDS011;43173;50.980;18.204;2023-04-24T09:36:36;12.00;;;5.10;;
57337;SDS011;43173;50.980;18.204;2023-04-24T09:39:07;8.30;;;5.00;;
57337;SDS011;43173;50.980;18.204;2023-04-24T09:41:43;8.60;;;5.10;;
57337;SDS011;43173;50.980;18.204;2023-04-24T09:44:16;6.70;;;4.50;;
57337;SDS011;43173;50.980;18.204;2023-04-24T09:46:49;4.80;;;3.90;;
57337;SDS011;43173;50.980;18.204;2023-04-24T09:49:20;6.70;;;4.10;;
57337;SDS011;43173;50.980;18.204;2023-04-24T09:51:50;7.70;;;5.10;;
57337;SDS011;43173;50.980;18.204;2023-04-24T09:54:16;6.60;;;4.30;;
57337;SDS011;43173;50.980;18.204;2023-04-24T09:56:44;7.40;;;4.40;;
57337;SDS011;43173;50.980;18.204;2023-04-24T09:59:10;9.40;;;6.00;;
57337;SDS011;43173;50.980;18.204;2023-04-24T10:01:37;8.60;;;5.40;;
57337;SDS011;43173;50.980;18.204;2023-04-24T10:04:03;6.60;;;4.50;;
57337;SDS011;43173;50.980;18.204;2023-04-24T10:06:31;7.90;;;5.00;;
57337;SDS011;43173;50.980;18.204;2023-04-24T10:09:00;6.60;;;4.00;;
57337;SDS011;43173;50.980;18.204;2023-04-24T10:11:29;6.40;;;4.50;;
57337;SDS011;43173;50.980;18.204;2023-04-24T10:13:55;4.70;;;3.70;;
57337;SDS011;43173;50.980;18.204;2023-04-24T10:16:22;10.40;;;6.70;;
57337;SDS011;43173;50.980;18.204;2023-04-24T10:18:49;9.70;;;5.80;;
57337;SDS011;43173;50.980;18.204;2023-04-24T10:21:17;5.90;;;4.50;;
57337;SDS011;43173;50.980;18.204;2023-04-24T10:23:43;8.00;;;4.80;;
57337;SDS011;43173;50.980;18.204;2023-04-24T10:26:14;9.20;;;5.60;;
57337;SDS011;43173;50.980;18.204;2023-04-24T10:28:46;5.00;;;4.50;;
57337;SDS011;43173;50.980;18.204;2023-04-24T10:31:12;9.50;;;7.20;;
57337;SDS011;43173;50.980;18.204;2023-04-24T10:33:40;7.20;;;4.10;;
57337;SDS011;43173;50.980;18.204;2023-04-24T10:36:07;5.90;;;4.00;;
57337;SDS011;43173;50.980;18.204;2023-04-24T10:38:34;5.40;;;4.50;;
57337;SDS011;43173;50.980;18.204;2023-04-24T10:41:08;6.90;;;4.00;;
57337;SDS011;43173;50.980;18.204;2023-04-24T10:43:48;5.10;;;3.20;;
57337;SDS011;43173;50.980;18.204;2023-04-24T10:46:30;5.20;;;4.30;;
57337;SDS011;43173;50.980;18.204;2023-04-24T10:48:55;7.50;;;4.50;;
57337;SDS011;43173;50.980;18.204;2023-04-24T10:51:22;6.50;;;4.50;;
57337;SDS011;43173;50.980;18.204;2023-04-24T10:53:49;5.10;;;4.20;;
57337;SDS011;43173;50.980;18.204;2023-04-24T10:56:16;4.90;;;4.30;;
57337;SDS011;43173;50.980;18.204;2023-04-24T10:58:49;9.70;;;4.60;;
57337;SDS011;43173;50.980;18.204;2023-04-24T11:01:24;6.70;;;4.60;;
57337;SDS011;43173;50.980;18.204;2023-04-24T11:03:54;6.60;;;4.30;;
57337;SDS011;43173;50.980;18.204;2023-04-24T11:21:11;5.80;;;4.70;;
57337;SDS011;43173;50.980;18.204;2023-04-24T11:23:46;5.00;;;4.50;;
57337;SDS011;43173;50.980;18.204;2023-04-24T11:26:12;6.00;;;4.60;;
57337;SDS011;43173;50.980;18.204;2023-04-24T11:28:49;6.10;;;4.50;;
57337;SDS011;43173;50.980;18.204;2023-04-24T11:34:10;7.30;;;4.30;;
57337;SDS011;43173;50.980;18.204;2023-04-24T11:36:39;4.90;;;4.20;;
57337;SDS011;43173;50.980;18.204;2023-04-24T11:39:08;5.60;;;3.90;;
57337;SDS011;43173;50.980;18.204;2023-04-24T11:41:35;6.50;;;4.70;;
57337;SDS011;43173;50.980;18.204;2023-04-24T11:44:00;6.60;;;4.80;;
57337;SDS011;43173;50.980;18.204;2023-04-24T11:46:27;5.60;;;3.70;;
57337;SDS011;43173;50.980;18.204;2023-04-24T11:48:56;6.70;;;4.40;;
57337;SDS011;43173;50.980;18.204;2023-04-24T11:51:23;5.20;;;4.00;;
57337;SDS011;43173;50.980;18.204;2023-04-24T11:53:50;5.30;;;3.50;;
57337;SDS011;43173;50.980;18.204;2023-04-24T11:56:23;6.40;;;3.90;;
57337;SDS011;43173;50.980;18.204;2023-04-24T11:58:51;8.10;;;4.30;;
57337;SDS011;43173;50.980;18.204;2023-04-24T12:01:19;7.80;;;4.30;;
57337;SDS011;43173;50.980;18.204;2023-04-24T12:03:48;5.70;;;3.80;;
57337;SDS011;43173;50.980;18.204;2023-04-24T12:06:16;7.50;;;4.70;;
57337;SDS011;43173;50.980;18.204;2023-04-24T12:08:42;7.60;;;5.00;;
57337;SDS011;43173;50.980;18.204;2023-04-24T12:11:11;4.90;;;4.40;;
57337;SDS011;43173;50.980;18.204;2023-04-24T12:13:40;6.20;;;5.20;;
57337;SDS011;43173;50.980;18.204;2023-04-24T12:16:05;6.00;;;5.00;;
57337;SDS011;43173;50.980;18.204;2023-04-24T12:18:31;7.50;;;4.40;;
57337;SDS011;43173;50.980;18.204;2023-04-24T12:21:14;6.90;;;3.90;;
57337;SDS011;43173;50.980;18.204;2023-04-24T12:23:44;6.00;;;4.20;;
57337;SDS011;43173;50.980;18.204;2023-04-24T12:26:15;6.90;;;4.70;;
57337;SDS011;43173;50.980;18.204;2023-04-24T12:28:43;7.70;;;4.70;;
57337;SDS011;43173;50.980;18.204;2023-04-24T12:33:40;5.00;;;4.20;;
57337;SDS011;43173;50.980;18.204;2023-04-24T12:36:06;6.40;;;4.40;;
57337;SDS011;43173;50.980;18.204;2023-04-24T12:38:31;7.50;;;4.90;;
57337;SDS011;43173;50.980;18.204;2023-04-24T12:41:08;7.00;;;4.90;;
57337;SDS011;43173;50.980;18.204;2023-04-24T12:43:35;5.70;;;4.10;;
57337;SDS011;43173;50.980;18.204;2023-04-24T12:46:01;4.90;;;4.30;;
57337;SDS011;43173;50.980;18.204;2023-04-24T12:48:27;8.00;;;5.10;;
57337;SDS011;43173;50.980;18.204;2023-04-24T12:50:54;5.00;;;3.80;;
57337;SDS011;43173;50.980;18.204;2023-04-24T12:53:21;4.20;;;3.10;;
57337;SDS011;43173;50.980;18.204;2023-04-24T12:55:47;4.90;;;3.80;;
57337;SDS011;43173;50.980;18.204;2023-04-24T12:58:21;6.70;;;4.30;;
57337;SDS011;43173;50.980;18.204;2023-04-24T13:00:46;6.20;;;4.10;;
57337;SDS011;43173;50.980;18.204;2023-04-24T13:03:12;4.80;;;4.00;;
57337;SDS011;43173;50.980;18.204;2023-04-24T13:05:38;4.90;;;4.20;;
57337;SDS011;43173;50.980;18.204;2023-04-24T13:08:04;4.50;;;4.10;;
57337;SDS011;43173;50.980;18.204;2023-04-24T13:10:30;6.80;;;4.60;;
57337;SDS011;43173;50.980;18.204;2023-04-24T13:12:55;9.10;;;4.90;;
57337;SDS011;43173;50.980;18.204;2023-04-24T13:15:21;6.50;;;4.70;;
57337;SDS011;43173;50.980;18.204;2023-04-24T13:17:47;8.00;;;4.10;;
57337;SDS011;43173;50.980;18.204;2023-04-24T13:20:13;5.30;;;4.30;;
57337;SDS011;43173;50.980;18.204;2023-04-24T13:22:38;6.30;;;4.50;;
57337;SDS011;43173;50.980;18.204;2023-04-24T13:25:04;7.20;;;4.50;;
57337;SDS011;43173;50.980;18.204;2023-04-24T13:27:34;7.30;;;5.10;;
57337;SDS011;43173;50.980;18.204;2023-04-24T13:30:00;5.50;;;4.80;;
57337;SDS011;43173;50.980;18.204;2023-04-24T13:32:25;5.70;;;4.80;;
57337;SDS011;43173;50.980;18.204;2023-04-24T13:34:51;6.30;;;4.60;;
57337;SDS011;43173;50.980;18.204;2023-04-24T13:37:17;7.30;;;5.30;;
57337;SDS011;43173;50.980;18.204;2023-04-24T13:39:43;6.90;;;5.10;;
57337;SDS011;43173;50.980;18.204;2023-04-24T13:42:08;8.00;;;5.50;;
57337;SDS011;43173;50.980;18.204;2023-04-24T13:44:34;8.90;;;5.80;;
57337;SDS011;43173;50.980;18.204;2023-04-24T13:47:00;6.10;;;5.30;;
57337;SDS011;43173;50.980;18.204;2023-04-24T13:49:26;7.60;;;5.50;;
57337;SDS011;43173;50.980;18.204;2023-04-24T13:51:53;6.40;;;5.60;;
57337;SDS011;43173;50.980;18.204;2023-04-24T13:54:20;7.40;;;5.70;;
57337;SDS011;43173;50.980;18.204;2023-04-24T13:56:45;7.10;;;5.90;;
57337;SDS011;43173;50.980;18.204;2023-04-24T13:59:14;8.00;;;5.80;;
57337;SDS011;43173;50.980;18.204;2023-04-24T14:01:40;9.30;;;8.20;;
57337;SDS011;43173;50.980;18.204;2023-04-24T14:04:06;7.30;;;6.10;;
57337;SDS011;43173;50.980;18.204;2023-04-24T14:06:31;10.70;;;7.00;;
57337;SDS011;43173;50.980;18.204;2023-04-24T14:08:57;13.90;;;8.40;;
57337;SDS011;43173;50.980;18.204;2023-04-24T14:11:23;11.60;;;7.50;;
57337;SDS011;43173;50.980;18.204;2023-04-24T14:13:48;8.50;;;6.90;;
57337;SDS011;43173;50.980;18.204;2023-04-24T14:16:14;8.00;;;6.90;;
57337;SDS011;43173;50.980;18.204;2023-04-24T14:18:39;11.80;;;8.70;;
57337;SDS011;43173;50.980;18.204;2023-04-24T14:21:05;15.20;;;7.10;;
57337;SDS011;43173;50.980;18.204;2023-04-24T14:23:31;10.40;;;6.90;;
57337;SDS011;43173;50.980;18.204;2023-04-24T14:25:57;8.30;;;6.10;;
57337;SDS011;43173;50.980;18.204;2023-04-24T14:28:24;10.90;;;6.60;;
57337;SDS011;43173;50.980;18.204;2023-04-24T14:30:49;18.20;;;9.50;;
57337;SDS011;43173;50.980;18.204;2023-04-24T14:33:15;18.30;;;7.90;;
57337;SDS011;43173;50.980;18.204;2023-04-24T14:35:41;9.80;;;5.90;;
57337;SDS011;43173;50.980;18.204;2023-04-24T14:38:10;12.10;;;7.80;;
57337;SDS011;43173;50.980;18.204;2023-04-24T14:40:36;9.20;;;6.70;;
57337;SDS011;43173;50.980;18.204;2023-04-24T14:43:02;10.40;;;6.70;;
57337;SDS011;43173;50.980;18.204;2023-04-24T14:45:28;12.20;;;6.70;;
57337;SDS011;43173;50.980;18.204;2023-04-24T14:47:53;17.70;;;9.30;;
57337;SDS011;43173;50.980;18.204;2023-04-24T14:50:19;21.70;;;9.60;;